sensor_id;sensor_type;location;lat;lon;timestamp;P1;durP1;ratioP1;P2;durP2;ratioP2
50301;SDS011;36550;50.472;19.744;2023-12-20T00:02:29;7.60;;;3.20;;
50301;SDS011;36550;50.472;19.744;2023-12-20T00:05:13;7.20;;;3.00;;
50301;SDS011;36550;50.472;19.744;2023-12-20T00:07:57;7.20;;;3.00;;
50301;SDS011;36550;50.472;19.744;2023-12-20T00:10:42;7.30;;;3.00;;
50301;SDS011;36550;50.472;19.744;2023-12-20T00:13:27;8.10;;;3.30;;
50301;SDS011;36550;50.472;19.744;2023-12-20T00:16:11;5.90;;;2.70;;
50301;SDS011;36550;50.472;19.744;2023-12-20T00:18:56;8.70;;;3.10;;
50301;SDS011;36550;50.472;19.744;2023-12-20T00:21:42;5.70;;;3.20;;
50301;SDS011;36550;50.472;19.744;2023-12-20T00:24:26;6.60;;;2.90;;
50301;SDS011;36550;50.472;19.744;2023-12-20T00:27:10;7.50;;;3.20;;
50301;SDS011;36550;50.472;19.744;2023-12-20T00:29:54;6.40;;;3.10;;
50301;SDS011;36550;50.472;19.744;2023-12-20T00:32:38;6.70;;;3.20;;
50301;SDS011;36550;50.472;19.744;2023-12-20T00:35:22;5.80;;;2.90;;
50301;SDS011;36550;50.472;19.744;2023-12-20T00:38:07;6.00;;;3.40;;
50301;SDS011;36550;50.472;19.744;2023-12-20T00:40:52;6.60;;;3.40;;
50301;SDS011;36550;50.472;19.744;2023-12-20T00:43:36;9.40;;;3.30;;
50301;SDS011;36550;50.472;19.744;2023-12-20T00:46:20;6.00;;;2.80;;
50301;SDS011;36550;50.472;19.744;2023-12-20T00:49:05;6.80;;;3.40;;
50301;SDS011;36550;50.472;19.744;2023-12-20T00:51:49;10.40;;;3.60;;
50301;SDS011;36550;50.472;19.744;2023-12-20T00:54:34;7.00;;;3.50;;
50301;SDS011;36550;50.472;19.744;2023-12-20T00:57:18;7.40;;;3.20;;
50301;SDS011;36550;50.472;19.744;2023-12-20T01:00:03;5.80;;;3.30;;
50301;SDS011;36550;50.472;19.744;2023-12-20T01:02:48;8.10;;;3.20;;
50301;SDS011;36550;50.472;19.744;2023-12-20T01:05:33;8.20;;;4.10;;
50301;SDS011;36550;50.472;19.744;2023-12-20T01:08:18;8.80;;;3.40;;
50301;SDS011;36550;50.472;19.744;2023-12-20T01:11:05;6.40;;;3.30;;
50301;SDS011;36550;50.472;19.744;2023-12-20T01:13:50;7.20;;;2.90;;
50301;SDS011;36550;50.472;19.744;2023-12-20T01:16:34;6.80;;;3.00;;
50301;SDS011;36550;50.472;19.744;2023-12-20T01:19:18;6.60;;;3.00;;
50301;SDS011;36550;50.472;19.744;2023-12-20T01:22:02;6.60;;;3.00;;
50301;SDS011;36550;50.472;19.744;2023-12-20T01:24:47;7.80;;;3.00;;
50301;SDS011;36550;50.472;19.744;2023-12-20T01:27:31;6.40;;;3.10;;
50301;SDS011;36550;50.472;19.744;2023-12-20T01:30:15;7.00;;;3.60;;
50301;SDS011;36550;50.472;19.744;2023-12-20T01:33:00;6.60;;;3.50;;
50301;SDS011;36550;50.472;19.744;2023-12-20T01:35:45;6.40;;;3.40;;
50301;SDS011;36550;50.472;19.744;2023-12-20T01:38:29;6.60;;;3.50;;
50301;SDS011;36550;50.472;19.744;2023-12-20T01:41:13;7.80;;;3.10;;
50301;SDS011;36550;50.472;19.744;2023-12-20T01:43:57;5.80;;;2.90;;
50301;SDS011;36550;50.472;19.744;2023-12-20T01:46:41;7.00;;;3.50;;
50301;SDS011;36550;50.472;19.744;2023-12-20T01:49:25;6.20;;;3.30;;
50301;SDS011;36550;50.472;19.744;2023-12-20T01:52:09;5.80;;;3.00;;
50301;SDS011;36550;50.472;19.744;2023-12-20T01:54:54;6.30;;;3.10;;
50301;SDS011;36550;50.472;19.744;2023-12-20T01:57:44;7.00;;;3.50;;
50301;SDS011;36550;50.472;19.744;2023-12-20T02:03:15;5.50;;;3.00;;
50301;SDS011;36550;50.472;19.744;2023-12-20T02:06:00;5.40;;;2.90;;
50301;SDS011;36550;50.472;19.744;2023-12-20T02:08:44;7.60;;;3.80;;
50301;SDS011;36550;50.472;19.744;2023-12-20T02:11:29;8.20;;;3.10;;
50301;SDS011;36550;50.472;19.744;2023-12-20T02:14:13;7.10;;;2.90;;
50301;SDS011;36550;50.472;19.744;2023-12-20T02:16:57;6.70;;;2.80;;
50301;SDS011;36550;50.472;19.744;2023-12-20T02:19:43;5.60;;;2.80;;
50301;SDS011;36550;50.472;19.744;2023-12-20T02:22:27;5.80;;;2.50;;
50301;SDS011;36550;50.472;19.744;2023-12-20T02:25:11;6.70;;;2.50;;
50301;SDS011;36550;50.472;19.744;2023-12-20T02:27:55;6.60;;;2.80;;
50301;SDS011;36550;50.472;19.744;2023-12-20T02:30:39;10.90;;;3.40;;
50301;SDS011;36550;50.472;19.744;2023-12-20T02:33:23;7.90;;;3.10;;
50301;SDS011;36550;50.472;19.744;2023-12-20T02:36:07;13.50;;;4.80;;
50301;SDS011;36550;50.472;19.744;2023-12-20T02:38:52;8.30;;;3.30;;
50301;SDS011;36550;50.472;19.744;2023-12-20T02:41:36;7.10;;;3.40;;
50301;SDS011;36550;50.472;19.744;2023-12-20T02:44:20;7.00;;;3.00;;
50301;SDS011;36550;50.472;19.744;2023-12-20T02:47:04;8.40;;;3.30;;
50301;SDS011;36550;50.472;19.744;2023-12-20T02:49:48;9.90;;;3.70;;
50301;SDS011;36550;50.472;19.744;2023-12-20T02:52:33;7.00;;;3.90;;
50301;SDS011;36550;50.472;19.744;2023-12-20T02:55:17;8.00;;;4.00;;
50301;SDS011;36550;50.472;19.744;2023-12-20T02:58:01;5.90;;;3.10;;
50301;SDS011;36550;50.472;19.744;2023-12-20T03:00:45;11.20;;;4.70;;
50301;SDS011;36550;50.472;19.744;2023-12-20T03:03:29;7.80;;;4.60;;
50301;SDS011;36550;50.472;19.744;2023-12-20T03:06:16;10.50;;;4.20;;
50301;SDS011;36550;50.472;19.744;2023-12-20T03:09:02;7.70;;;4.40;;
50301;SDS011;36550;50.472;19.744;2023-12-20T03:11:46;10.10;;;5.00;;
50301;SDS011;36550;50.472;19.744;2023-12-20T03:14:30;14.40;;;6.20;;
50301;SDS011;36550;50.472;19.744;2023-12-20T03:17:15;15.60;;;6.30;;
50301;SDS011;36550;50.472;19.744;2023-12-20T03:19:59;12.00;;;5.20;;
50301;SDS011;36550;50.472;19.744;2023-12-20T03:22:43;13.80;;;6.00;;
50301;SDS011;36550;50.472;19.744;2023-12-20T03:25:27;21.70;;;7.70;;
50301;SDS011;36550;50.472;19.744;2023-12-20T03:28:14;14.80;;;6.90;;
50301;SDS011;36550;50.472;19.744;2023-12-20T03:30:58;9.10;;;4.60;;
50301;SDS011;36550;50.472;19.744;2023-12-20T03:33:42;8.30;;;4.40;;
50301;SDS011;36550;50.472;19.744;2023-12-20T03:36:27;8.40;;;4.30;;
50301;SDS011;36550;50.472;19.744;2023-12-20T03:39:11;8.70;;;4.30;;
50301;SDS011;36550;50.472;19.744;2023-12-20T03:41:55;8.00;;;4.30;;
50301;SDS011;36550;50.472;19.744;2023-12-20T03:44:39;6.90;;;4.00;;
50301;SDS011;36550;50.472;19.744;2023-12-20T03:47:24;9.60;;;4.70;;
50301;SDS011;36550;50.472;19.744;2023-12-20T03:50:08;13.10;;;6.10;;
50301;SDS011;36550;50.472;19.744;2023-12-20T03:52:53;11.70;;;5.80;;
50301;SDS011;36550;50.472;19.744;2023-12-20T03:55:37;14.50;;;6.80;;
50301;SDS011;36550;50.472;19.744;2023-12-20T03:58:21;13.10;;;6.30;;
50301;SDS011;36550;50.472;19.744;2023-12-20T04:01:09;10.40;;;5.70;;
50301;SDS011;36550;50.472;19.744;2023-12-20T04:03:55;10.50;;;5.70;;
50301;SDS011;36550;50.472;19.744;2023-12-20T04:06:39;12.90;;;6.60;;
50301;SDS011;36550;50.472;19.744;2023-12-20T04:09:24;10.30;;;6.00;;
50301;SDS011;36550;50.472;19.744;2023-12-20T04:12:08;10.10;;;6.50;;
50301;SDS011;36550;50.472;19.744;2023-12-20T04:14:52;11.50;;;6.00;;
50301;SDS011;36550;50.472;19.744;2023-12-20T04:17:36;12.50;;;6.50;;
50301;SDS011;36550;50.472;19.744;2023-12-20T04:20:20;13.00;;;7.00;;
50301;SDS011;36550;50.472;19.744;2023-12-20T04:23:04;10.10;;;6.10;;
50301;SDS011;36550;50.472;19.744;2023-12-20T04:25:49;12.10;;;6.90;;
50301;SDS011;36550;50.472;19.744;2023-12-20T04:28:33;12.40;;;6.90;;
50301;SDS011;36550;50.472;19.744;2023-12-20T04:31:17;13.20;;;6.70;;
50301;SDS011;36550;50.472;19.744;2023-12-20T04:34:01;15.20;;;6.00;;
50301;SDS011;36550;50.472;19.744;2023-12-20T04:36:45;12.30;;;6.30;;
50301;SDS011;36550;50.472;19.744;2023-12-20T04:39:30;9.30;;;6.00;;
50301;SDS011;36550;50.472;19.744;2023-12-20T04:42:14;13.40;;;7.40;;
50301;SDS011;36550;50.472;19.744;2023-12-20T04:44:59;13.20;;;7.20;;
50301;SDS011;36550;50.472;19.744;2023-12-20T04:47:43;13.70;;;7.00;;
50301;SDS011;36550;50.472;19.744;2023-12-20T04:50:27;13.20;;;7.70;;
50301;SDS011;36550;50.472;19.744;2023-12-20T04:53:11;15.90;;;7.90;;
50301;SDS011;36550;50.472;19.744;2023-12-20T04:55:55;15.10;;;7.40;;
50301;SDS011;36550;50.472;19.744;2023-12-20T04:58:39;15.00;;;8.30;;
50301;SDS011;36550;50.472;19.744;2023-12-20T05:01:23;14.40;;;7.70;;
50301;SDS011;36550;50.472;19.744;2023-12-20T05:04:08;16.30;;;8.80;;
50301;SDS011;36550;50.472;19.744;2023-12-20T05:06:52;15.40;;;8.50;;
50301;SDS011;36550;50.472;19.744;2023-12-20T05:09:36;15.60;;;9.40;;
50301;SDS011;36550;50.472;19.744;2023-12-20T05:12:21;17.70;;;8.60;;
50301;SDS011;36550;50.472;19.744;2023-12-20T05:15:06;17.20;;;8.20;;
50301;SDS011;36550;50.472;19.744;2023-12-20T05:17:51;19.90;;;9.30;;
50301;SDS011;36550;50.472;19.744;2023-12-20T05:20:35;17.80;;;8.70;;
50301;SDS011;36550;50.472;19.744;2023-12-20T05:23:19;20.30;;;9.00;;
50301;SDS011;36550;50.472;19.744;2023-12-20T05:26:04;21.00;;;10.60;;
50301;SDS011;36550;50.472;19.744;2023-12-20T05:28:48;20.20;;;10.90;;
50301;SDS011;36550;50.472;19.744;2023-12-20T05:31:32;20.60;;;10.30;;
50301;SDS011;36550;50.472;19.744;2023-12-20T05:34:16;23.40;;;10.70;;
50301;SDS011;36550;50.472;19.744;2023-12-20T05:37:00;22.60;;;10.70;;
50301;SDS011;36550;50.472;19.744;2023-12-20T05:39:45;19.20;;;10.20;;
50301;SDS011;36550;50.472;19.744;2023-12-20T05:42:29;23.90;;;12.50;;
50301;SDS011;36550;50.472;19.744;2023-12-20T05:45:14;22.40;;;12.30;;
50301;SDS011;36550;50.472;19.744;2023-12-20T05:47:59;23.60;;;10.90;;
50301;SDS011;36550;50.472;19.744;2023-12-20T05:50:43;21.40;;;10.30;;
50301;SDS011;36550;50.472;19.744;2023-12-20T05:53:27;25.20;;;11.90;;
50301;SDS011;36550;50.472;19.744;2023-12-20T05:56:11;23.70;;;10.60;;
50301;SDS011;36550;50.472;19.744;2023-12-20T05:58:56;26.90;;;12.50;;
50301;SDS011;36550;50.472;19.744;2023-12-20T06:01:40;21.00;;;11.50;;
50301;SDS011;36550;50.472;19.744;2023-12-20T06:04:24;19.60;;;11.40;;
50301;SDS011;36550;50.472;19.744;2023-12-20T06:07:08;20.90;;;10.40;;
50301;SDS011;36550;50.472;19.744;2023-12-20T06:09:52;18.00;;;9.80;;
50301;SDS011;36550;50.472;19.744;2023-12-20T06:12:36;21.60;;;10.20;;
50301;SDS011;36550;50.472;19.744;2023-12-20T06:15:21;20.70;;;10.80;;
50301;SDS011;36550;50.472;19.744;2023-12-20T06:18:05;19.50;;;10.00;;
50301;SDS011;36550;50.472;19.744;2023-12-20T06:20:50;19.30;;;10.90;;
50301;SDS011;36550;50.472;19.744;2023-12-20T06:23:34;17.80;;;9.70;;
50301;SDS011;36550;50.472;19.744;2023-12-20T06:26:19;21.80;;;12.20;;
50301;SDS011;36550;50.472;19.744;2023-12-20T06:29:03;22.50;;;11.00;;
50301;SDS011;36550;50.472;19.744;2023-12-20T06:31:47;20.10;;;12.50;;
50301;SDS011;36550;50.472;19.744;2023-12-20T06:34:32;19.00;;;9.40;;
50301;SDS011;36550;50.472;19.744;2023-12-20T06:37:16;19.00;;;10.60;;
50301;SDS011;36550;50.472;19.744;2023-12-20T06:40:01;20.20;;;11.00;;
50301;SDS011;36550;50.472;19.744;2023-12-20T06:42:45;19.80;;;12.40;;
50301;SDS011;36550;50.472;19.744;2023-12-20T06:45:30;26.00;;;13.00;;
50301;SDS011;36550;50.472;19.744;2023-12-20T06:48:14;25.00;;;13.60;;
50301;SDS011;36550;50.472;19.744;2023-12-20T06:50:59;20.90;;;12.00;;
50301;SDS011;36550;50.472;19.744;2023-12-20T06:53:45;22.30;;;12.60;;
50301;SDS011;36550;50.472;19.744;2023-12-20T06:56:29;25.80;;;13.40;;
50301;SDS011;36550;50.472;19.744;2023-12-20T06:59:14;19.10;;;11.00;;
50301;SDS011;36550;50.472;19.744;2023-12-20T07:01:59;21.40;;;11.90;;
50301;SDS011;36550;50.472;19.744;2023-12-20T07:04:43;22.90;;;12.10;;
50301;SDS011;36550;50.472;19.744;2023-12-20T07:07:27;22.00;;;12.20;;
50301;SDS011;36550;50.472;19.744;2023-12-20T07:10:11;21.70;;;12.20;;
50301;SDS011;36550;50.472;19.744;2023-12-20T07:12:55;17.90;;;10.20;;
50301;SDS011;36550;50.472;19.744;2023-12-20T07:15:39;17.80;;;9.90;;
50301;SDS011;36550;50.472;19.744;2023-12-20T07:18:24;20.20;;;11.00;;
50301;SDS011;36550;50.472;19.744;2023-12-20T07:21:08;15.90;;;10.60;;
50301;SDS011;36550;50.472;19.744;2023-12-20T07:23:52;21.00;;;11.10;;
50301;SDS011;36550;50.472;19.744;2023-12-20T07:26:37;18.10;;;10.00;;
50301;SDS011;36550;50.472;19.744;2023-12-20T07:29:22;17.40;;;10.30;;
50301;SDS011;36550;50.472;19.744;2023-12-20T07:32:07;20.50;;;11.80;;
50301;SDS011;36550;50.472;19.744;2023-12-20T07:34:52;16.30;;;10.80;;
50301;SDS011;36550;50.472;19.744;2023-12-20T07:37:37;24.40;;;12.60;;
50301;SDS011;36550;50.472;19.744;2023-12-20T07:40:21;27.80;;;13.10;;
50301;SDS011;36550;50.472;19.744;2023-12-20T07:43:07;21.70;;;12.40;;
50301;SDS011;36550;50.472;19.744;2023-12-20T07:45:52;20.60;;;11.00;;
50301;SDS011;36550;50.472;19.744;2023-12-20T07:48:36;17.50;;;8.80;;
50301;SDS011;36550;50.472;19.744;2023-12-20T07:51:20;22.70;;;12.10;;
50301;SDS011;36550;50.472;19.744;2023-12-20T07:54:05;32.60;;;12.90;;
50301;SDS011;36550;50.472;19.744;2023-12-20T07:56:49;24.20;;;12.50;;
50301;SDS011;36550;50.472;19.744;2023-12-20T07:59:33;21.70;;;11.30;;
50301;SDS011;36550;50.472;19.744;2023-12-20T08:02:17;19.20;;;11.20;;
50301;SDS011;36550;50.472;19.744;2023-12-20T08:05:02;16.40;;;9.00;;
50301;SDS011;36550;50.472;19.744;2023-12-20T08:07:46;14.90;;;8.40;;
50301;SDS011;36550;50.472;19.744;2023-12-20T08:10:30;17.20;;;9.90;;
50301;SDS011;36550;50.472;19.744;2023-12-20T08:13:15;17.10;;;9.10;;
50301;SDS011;36550;50.472;19.744;2023-12-20T08:15:59;15.70;;;8.60;;
50301;SDS011;36550;50.472;19.744;2023-12-20T08:18:44;14.80;;;9.20;;
50301;SDS011;36550;50.472;19.744;2023-12-20T08:21:28;17.90;;;9.80;;
50301;SDS011;36550;50.472;19.744;2023-12-20T08:24:12;20.10;;;11.40;;
50301;SDS011;36550;50.472;19.744;2023-12-20T08:26:56;16.90;;;11.00;;
50301;SDS011;36550;50.472;19.744;2023-12-20T08:29:43;18.20;;;10.60;;
50301;SDS011;36550;50.472;19.744;2023-12-20T08:32:28;13.60;;;8.10;;
50301;SDS011;36550;50.472;19.744;2023-12-20T08:35:12;16.50;;;9.90;;
50301;SDS011;36550;50.472;19.744;2023-12-20T08:37:56;16.80;;;9.70;;
50301;SDS011;36550;50.472;19.744;2023-12-20T08:40:41;15.70;;;10.00;;
50301;SDS011;36550;50.472;19.744;2023-12-20T08:43:25;11.70;;;7.20;;
50301;SDS011;36550;50.472;19.744;2023-12-20T08:46:09;14.30;;;8.70;;
50301;SDS011;36550;50.472;19.744;2023-12-20T08:48:53;12.20;;;8.50;;
50301;SDS011;36550;50.472;19.744;2023-12-20T08:51:38;14.20;;;7.90;;
50301;SDS011;36550;50.472;19.744;2023-12-20T08:54:24;14.30;;;8.90;;
50301;SDS011;36550;50.472;19.744;2023-12-20T08:57:08;13.20;;;9.10;;
50301;SDS011;36550;50.472;19.744;2023-12-20T08:59:53;11.80;;;8.20;;
50301;SDS011;36550;50.472;19.744;2023-12-20T09:02:37;13.50;;;8.20;;
50301;SDS011;36550;50.472;19.744;2023-12-20T09:05:21;13.40;;;8.50;;
50301;SDS011;36550;50.472;19.744;2023-12-20T09:08:06;13.90;;;9.20;;
50301;SDS011;36550;50.472;19.744;2023-12-20T09:10:51;13.30;;;9.30;;
50301;SDS011;36550;50.472;19.744;2023-12-20T09:13:35;14.70;;;9.00;;
50301;SDS011;36550;50.472;19.744;2023-12-20T09:16:20;12.60;;;8.00;;
50301;SDS011;36550;50.472;19.744;2023-12-20T09:19:04;14.20;;;8.50;;
50301;SDS011;36550;50.472;19.744;2023-12-20T09:21:49;16.70;;;9.10;;
50301;SDS011;36550;50.472;19.744;2023-12-20T09:24:33;14.60;;;9.10;;
50301;SDS011;36550;50.472;19.744;2023-12-20T09:27:18;14.20;;;8.90;;
50301;SDS011;36550;50.472;19.744;2023-12-20T09:30:02;16.70;;;9.00;;
50301;SDS011;36550;50.472;19.744;2023-12-20T09:32:48;12.20;;;8.50;;
50301;SDS011;36550;50.472;19.744;2023-12-20T09:35:32;12.50;;;8.10;;
50301;SDS011;36550;50.472;19.744;2023-12-20T09:38:16;9.80;;;6.50;;
50301;SDS011;36550;50.472;19.744;2023-12-20T09:41:01;9.70;;;6.30;;
50301;SDS011;36550;50.472;19.744;2023-12-20T09:43:48;12.30;;;7.40;;
50301;SDS011;36550;50.472;19.744;2023-12-20T09:46:34;9.70;;;6.20;;
50301;SDS011;36550;50.472;19.744;2023-12-20T09:49:23;11.20;;;6.60;;
50301;SDS011;36550;50.472;19.744;2023-12-20T09:52:11;9.40;;;6.00;;
50301;SDS011;36550;50.472;19.744;2023-12-20T09:57:42;14.60;;;8.20;;
50301;SDS011;36550;50.472;19.744;2023-12-20T10:00:26;10.90;;;7.20;;
50301;SDS011;36550;50.472;19.744;2023-12-20T10:03:11;11.20;;;7.90;;
50301;SDS011;36550;50.472;19.744;2023-12-20T10:05:58;12.20;;;8.00;;
50301;SDS011;36550;50.472;19.744;2023-12-20T10:08:44;13.70;;;8.70;;
50301;SDS011;36550;50.472;19.744;2023-12-20T10:11:28;15.70;;;10.20;;
50301;SDS011;36550;50.472;19.744;2023-12-20T10:14:13;16.70;;;8.80;;
50301;SDS011;36550;50.472;19.744;2023-12-20T10:17:04;27.30;;;15.40;;
50301;SDS011;36550;50.472;19.744;2023-12-20T10:19:50;15.70;;;8.80;;
50301;SDS011;36550;50.472;19.744;2023-12-20T10:22:34;16.90;;;10.00;;
50301;SDS011;36550;50.472;19.744;2023-12-20T10:25:19;14.20;;;9.90;;
50301;SDS011;36550;50.472;19.744;2023-12-20T10:28:14;13.80;;;7.00;;
50301;SDS011;36550;50.472;19.744;2023-12-20T10:31:04;18.50;;;8.00;;
50301;SDS011;36550;50.472;19.744;2023-12-20T10:33:48;14.30;;;8.20;;
50301;SDS011;36550;50.472;19.744;2023-12-20T10:36:33;10.10;;;6.00;;
50301;SDS011;36550;50.472;19.744;2023-12-20T10:39:20;11.60;;;6.60;;
50301;SDS011;36550;50.472;19.744;2023-12-20T10:42:05;9.80;;;6.40;;
50301;SDS011;36550;50.472;19.744;2023-12-20T10:44:50;11.80;;;6.20;;
50301;SDS011;36550;50.472;19.744;2023-12-20T10:47:34;10.90;;;6.50;;
50301;SDS011;36550;50.472;19.744;2023-12-20T10:50:21;14.60;;;7.80;;
50301;SDS011;36550;50.472;19.744;2023-12-20T10:53:06;15.30;;;8.50;;
50301;SDS011;36550;50.472;19.744;2023-12-20T10:55:51;12.60;;;7.10;;
50301;SDS011;36550;50.472;19.744;2023-12-20T10:58:38;13.30;;;6.90;;
50301;SDS011;36550;50.472;19.744;2023-12-20T11:01:27;14.10;;;8.00;;
50301;SDS011;36550;50.472;19.744;2023-12-20T11:04:14;15.70;;;9.10;;
50301;SDS011;36550;50.472;19.744;2023-12-20T11:10:10;16.10;;;9.00;;
50301;SDS011;36550;50.472;19.744;2023-12-20T11:13:08;20.80;;;9.70;;
50301;SDS011;36550;50.472;19.744;2023-12-20T11:16:00;17.50;;;9.40;;
50301;SDS011;36550;50.472;19.744;2023-12-20T11:18:45;20.70;;;11.60;;
50301;SDS011;36550;50.472;19.744;2023-12-20T11:21:29;15.10;;;8.70;;
50301;SDS011;36550;50.472;19.744;2023-12-20T11:24:15;23.40;;;11.20;;
50301;SDS011;36550;50.472;19.744;2023-12-20T11:27:00;13.00;;;7.20;;
50301;SDS011;36550;50.472;19.744;2023-12-20T11:29:52;27.90;;;13.10;;
50301;SDS011;36550;50.472;19.744;2023-12-20T11:32:37;16.20;;;9.30;;
50301;SDS011;36550;50.472;19.744;2023-12-20T11:35:24;11.40;;;5.90;;
50301;SDS011;36550;50.472;19.744;2023-12-20T11:38:09;12.70;;;6.20;;
50301;SDS011;36550;50.472;19.744;2023-12-20T11:40:54;16.50;;;7.60;;
50301;SDS011;36550;50.472;19.744;2023-12-20T11:43:39;15.30;;;7.70;;
50301;SDS011;36550;50.472;19.744;2023-12-20T11:46:24;13.50;;;6.00;;
50301;SDS011;36550;50.472;19.744;2023-12-20T11:49:09;11.30;;;5.50;;
50301;SDS011;36550;50.472;19.744;2023-12-20T11:51:53;9.20;;;4.80;;
50301;SDS011;36550;50.472;19.744;2023-12-20T11:54:37;8.50;;;4.40;;
50301;SDS011;36550;50.472;19.744;2023-12-20T11:57:21;9.60;;;4.00;;
50301;SDS011;36550;50.472;19.744;2023-12-20T12:00:06;10.50;;;4.80;;
50301;SDS011;36550;50.472;19.744;2023-12-20T12:02:57;10.70;;;4.80;;
50301;SDS011;36550;50.472;19.744;2023-12-20T12:05:42;12.00;;;5.20;;
50301;SDS011;36550;50.472;19.744;2023-12-20T12:08:26;12.60;;;6.80;;
50301;SDS011;36550;50.472;19.744;2023-12-20T12:11:10;12.70;;;6.00;;
50301;SDS011;36550;50.472;19.744;2023-12-20T12:13:55;12.10;;;5.50;;
50301;SDS011;36550;50.472;19.744;2023-12-20T12:16:41;13.40;;;6.00;;
50301;SDS011;36550;50.472;19.744;2023-12-20T12:22:12;17.70;;;8.40;;
50301;SDS011;36550;50.472;19.744;2023-12-20T12:25:09;15.10;;;6.60;;
50301;SDS011;36550;50.472;19.744;2023-12-20T12:27:55;14.70;;;7.00;;
50301;SDS011;36550;50.472;19.744;2023-12-20T12:30:40;19.40;;;7.60;;
50301;SDS011;36550;50.472;19.744;2023-12-20T12:33:25;18.10;;;8.70;;
50301;SDS011;36550;50.472;19.744;2023-12-20T12:36:10;18.20;;;8.60;;
50301;SDS011;36550;50.472;19.744;2023-12-20T12:38:56;17.20;;;7.30;;
50301;SDS011;36550;50.472;19.744;2023-12-20T12:41:42;14.70;;;7.20;;
50301;SDS011;36550;50.472;19.744;2023-12-20T12:44:26;16.80;;;8.70;;
50301;SDS011;36550;50.472;19.744;2023-12-20T12:47:10;13.50;;;6.90;;
50301;SDS011;36550;50.472;19.744;2023-12-20T12:49:54;13.60;;;8.00;;
50301;SDS011;36550;50.472;19.744;2023-12-20T12:52:38;28.70;;;14.00;;
50301;SDS011;36550;50.472;19.744;2023-12-20T12:55:22;29.70;;;11.70;;
50301;SDS011;36550;50.472;19.744;2023-12-20T12:58:07;42.30;;;20.10;;
50301;SDS011;36550;50.472;19.744;2023-12-20T13:00:51;50.60;;;26.50;;
50301;SDS011;36550;50.472;19.744;2023-12-20T13:03:35;25.30;;;14.30;;
50301;SDS011;36550;50.472;19.744;2023-12-20T13:06:20;24.60;;;14.20;;
50301;SDS011;36550;50.472;19.744;2023-12-20T13:09:05;17.60;;;9.80;;
50301;SDS011;36550;50.472;19.744;2023-12-20T13:11:49;18.50;;;9.20;;
50301;SDS011;36550;50.472;19.744;2023-12-20T13:14:34;20.30;;;11.50;;
50301;SDS011;36550;50.472;19.744;2023-12-20T13:17:20;25.40;;;12.10;;
50301;SDS011;36550;50.472;19.744;2023-12-20T13:20:05;18.50;;;10.20;;
50301;SDS011;36550;50.472;19.744;2023-12-20T13:22:50;20.20;;;10.10;;
50301;SDS011;36550;50.472;19.744;2023-12-20T13:25:34;16.00;;;9.90;;
50301;SDS011;36550;50.472;19.744;2023-12-20T13:28:20;15.40;;;7.20;;
50301;SDS011;36550;50.472;19.744;2023-12-20T13:31:04;12.10;;;6.30;;
50301;SDS011;36550;50.472;19.744;2023-12-20T13:33:49;17.90;;;8.20;;
50301;SDS011;36550;50.472;19.744;2023-12-20T13:36:33;39.70;;;14.70;;
50301;SDS011;36550;50.472;19.744;2023-12-20T13:39:17;65.20;;;17.90;;
50301;SDS011;36550;50.472;19.744;2023-12-20T13:42:01;28.40;;;10.20;;
50301;SDS011;36550;50.472;19.744;2023-12-20T13:44:46;21.00;;;8.40;;
50301;SDS011;36550;50.472;19.744;2023-12-20T13:47:31;14.00;;;7.30;;
50301;SDS011;36550;50.472;19.744;2023-12-20T13:50:16;24.80;;;11.80;;
50301;SDS011;36550;50.472;19.744;2023-12-20T13:53:00;84.00;;;33.50;;
50301;SDS011;36550;50.472;19.744;2023-12-20T13:55:45;38.40;;;15.60;;
50301;SDS011;36550;50.472;19.744;2023-12-20T13:58:29;61.60;;;22.30;;
50301;SDS011;36550;50.472;19.744;2023-12-20T14:01:13;150.10;;;43.90;;
50301;SDS011;36550;50.472;19.744;2023-12-20T14:03:58;66.20;;;23.10;;
50301;SDS011;36550;50.472;19.744;2023-12-20T14:06:44;65.10;;;22.80;;
50301;SDS011;36550;50.472;19.744;2023-12-20T14:09:29;66.10;;;23.90;;
50301;SDS011;36550;50.472;19.744;2023-12-20T14:12:13;77.10;;;27.10;;
50301;SDS011;36550;50.472;19.744;2023-12-20T14:14:59;77.10;;;30.40;;
50301;SDS011;36550;50.472;19.744;2023-12-20T14:17:42;44.80;;;16.80;;
50301;SDS011;36550;50.472;19.744;2023-12-20T14:20:27;18.10;;;7.80;;
50301;SDS011;36550;50.472;19.744;2023-12-20T14:23:11;25.70;;;11.70;;
50301;SDS011;36550;50.472;19.744;2023-12-20T14:25:55;13.50;;;6.40;;
50301;SDS011;36550;50.472;19.744;2023-12-20T14:28:42;28.20;;;11.80;;
50301;SDS011;36550;50.472;19.744;2023-12-20T14:31:27;13.20;;;6.60;;
50301;SDS011;36550;50.472;19.744;2023-12-20T14:34:12;18.00;;;8.50;;
50301;SDS011;36550;50.472;19.744;2023-12-20T14:36:56;16.60;;;8.10;;
50301;SDS011;36550;50.472;19.744;2023-12-20T14:39:40;24.20;;;12.90;;
50301;SDS011;36550;50.472;19.744;2023-12-20T14:42:25;114.30;;;48.30;;
50301;SDS011;36550;50.472;19.744;2023-12-20T14:45:10;199.40;;;107.90;;
50301;SDS011;36550;50.472;19.744;2023-12-20T14:47:54;76.60;;;41.40;;
50301;SDS011;36550;50.472;19.744;2023-12-20T14:50:39;132.70;;;60.90;;
50301;SDS011;36550;50.472;19.744;2023-12-20T14:53:24;64.70;;;29.70;;
50301;SDS011;36550;50.472;19.744;2023-12-20T14:56:09;95.00;;;49.40;;
50301;SDS011;36550;50.472;19.744;2023-12-20T14:58:53;26.70;;;15.80;;
50301;SDS011;36550;50.472;19.744;2023-12-20T15:01:37;35.10;;;22.20;;
50301;SDS011;36550;50.472;19.744;2023-12-20T15:04:21;20.10;;;12.50;;
50301;SDS011;36550;50.472;19.744;2023-12-20T15:07:11;30.10;;;19.50;;
50301;SDS011;36550;50.472;19.744;2023-12-20T15:09:55;21.80;;;13.10;;
50301;SDS011;36550;50.472;19.744;2023-12-20T15:12:39;15.70;;;10.00;;
50301;SDS011;36550;50.472;19.744;2023-12-20T15:15:23;18.30;;;11.10;;
50301;SDS011;36550;50.472;19.744;2023-12-20T15:20:54;13.70;;;7.80;;
50301;SDS011;36550;50.472;19.744;2023-12-20T15:23:39;15.30;;;8.80;;
50301;SDS011;36550;50.472;19.744;2023-12-20T15:26:27;18.00;;;9.20;;
50301;SDS011;36550;50.472;19.744;2023-12-20T15:29:12;23.30;;;12.70;;
50301;SDS011;36550;50.472;19.744;2023-12-20T15:31:58;28.10;;;14.60;;
50301;SDS011;36550;50.472;19.744;2023-12-20T15:34:43;28.90;;;15.90;;
50301;SDS011;36550;50.472;19.744;2023-12-20T15:37:27;32.40;;;17.20;;
50301;SDS011;36550;50.472;19.744;2023-12-20T15:40:11;36.60;;;19.20;;
50301;SDS011;36550;50.472;19.744;2023-12-20T15:42:56;45.50;;;21.60;;
50301;SDS011;36550;50.472;19.744;2023-12-20T15:45:40;54.80;;;25.70;;
50301;SDS011;36550;50.472;19.744;2023-12-20T15:48:24;33.50;;;17.30;;
50301;SDS011;36550;50.472;19.744;2023-12-20T15:51:13;45.80;;;20.50;;
50301;SDS011;36550;50.472;19.744;2023-12-20T15:53:58;31.30;;;16.40;;
50301;SDS011;36550;50.472;19.744;2023-12-20T15:56:46;35.60;;;16.10;;
50301;SDS011;36550;50.472;19.744;2023-12-20T15:59:31;32.80;;;16.20;;
50301;SDS011;36550;50.472;19.744;2023-12-20T16:02:15;44.00;;;20.90;;
50301;SDS011;36550;50.472;19.744;2023-12-20T16:05:00;25.00;;;13.50;;
50301;SDS011;36550;50.472;19.744;2023-12-20T16:07:44;28.50;;;15.20;;
50301;SDS011;36550;50.472;19.744;2023-12-20T16:10:28;30.00;;;15.40;;
50301;SDS011;36550;50.472;19.744;2023-12-20T16:13:33;28.30;;;13.90;;
50301;SDS011;36550;50.472;19.744;2023-12-20T16:16:18;24.90;;;13.60;;
50301;SDS011;36550;50.472;19.744;2023-12-20T16:19:02;31.10;;;15.60;;